Wednesday, April 23, 2014
06:45 UTC
  |  Log In   |  Register Free
Airport Search:

Yellowstone Regional Airport
(KCOD)

Yellowstone Regional Airport Diagram
No Airport Diagram Available

FAA data valid effective April 3, 2014 until May 29, 2014 (unless otherwise noted).

 
 
 
 
 
 
 
 
 
 
 
 
 
 

Current Aviation Weather for Yellowstone Regional Airport (KCOD)

The most recent METAR observation for KCOD was updated at: 0555 UTC
METAR Summary (Translated METAR)
KCOD
230555Z 26010G19KT 10SM CLR 13/02 A2943 RMK AO1 10190 20130 52003
KGEY
(40.3 nm SE from KCOD)
230553Z AUTO 16007KT 10SM CLR 16/02 A2938 RMK AO2 SLP922 T01610022 10222 20161 58003
TAF Summary (Translated TAF)
KCOD
230520Z 2306/2406 25015G25KT P6SM VCSH SCT050 BKN080 FM231400 35012G18KT P6SM VCSH SCT060 BKN080 FM231800 26014G24KT P6SM FEW060 SCT090 AMD LTD TO CLD VIS AND WIND
  Airport Weather Conditions for KCOD

 Current Weather at COD
55° F
Fair
West winds at 11.5 mph
COD NOAA Radar

Pressure: 29.43 in
Humidity: 47%
Wind: from the West at 11.5 gusting to 21.9 MPH (10 gusting to 19 KT)
Dew Point: 35.6°F
Visibility: 10.00 mi


Airport Weather Forecast for KCOD

Translated METAR and TAF for KCOD
Translated METAR for KCOD (0645 UTC 23 April 2014)
found at http://aviationweather.gov/adds/metars/
 
METAR text: KCOD 230635Z 26016G25KT 10SM CLR 12/02 A2945 RMK AO1
Conditions at: KCOD (CODY , WY, US) observed 0635 UTC 23 April 2014
Temperature: 12.0°C (54°F)
Dewpoint: 2.0°C (36°F) [RH = 50%]
Pressure (altimeter): 29.45 inches Hg (997.4 mb)
Winds: from the W (260 degrees) at 18 MPH (16 knots; 8.3 m/s)
gusting to 29 MPH (25 knots; 13.0 m/s)
Visibility: 10 or more miles (16+ km)
Ceiling: at least 12,000 feet AGL
Clouds: sky clear below 12,000 feet AGL
Weather: no significant weather observed at this time
Translated TAF for KCOD
Forecast for: KCOD (CODY , WY, US)
TAF Text: KCOD 230520Z 2306/2406 25015G25KT P6SM VCSH SCT050 BKN080
Forecast period: 0600 to 1400 UTC 23 April 2014
Forecast type: FROM: standard forecast or significant change
Winds: from the WSW (250 degrees) at 17 MPH (15 knots; 7.8 m/s)
gusting to 29 MPH (25 knots; 13.0 m/s)
Visibility: 6 or more miles (10+ km)
Ceiling: 8000 feet AGL
Clouds: scattered clouds at 5000 feet AGL
broken clouds at 8000 feet AGL
Weather: VCSH  (showers in vicinity)
TAF Text: FM231400 35012G18KT P6SM VCSH SCT060 BKN080
Forecast period: 1400 to 1800 UTC 23 April 2014
Forecast type: FROM: standard forecast or significant change
Winds: from the N (350 degrees) at 14 MPH (12 knots; 6.2 m/s)
gusting to 21 MPH (18 knots; 9.4 m/s)
Visibility: 6 or more miles (10+ km)
Ceiling: 8000 feet AGL
Clouds: scattered clouds at 6000 feet AGL
broken clouds at 8000 feet AGL
Weather: VCSH  (showers in vicinity)
TAF Text: FM231800 26014G24KT P6SM FEW060 SCT090 AMD LTD TO CLD VIS AND WIND
Forecast period: 1800 UTC 23 April 2014 to 0600 UTC 24 April 2014
Forecast type: FROM: standard forecast or significant change
Winds: from the W (260 degrees) at 16 MPH (14 knots; 7.3 m/s)
gusting to 28 MPH (24 knots; 12.5 m/s)
Visibility: 6 or more miles (10+ km)
Clouds: few clouds at 6000 feet AGL
scattered clouds at 9000 feet AGL
Weather: no significant weather forecast for this period

Find All Airport Services Find A Hotel Find A Rental Car Find A Golf Course Find A Restaurant $100 Hamburger



FBO's on the Field
FBO Company Facility Photos Services Transportation Aviation Fuel Prices: Prices include tax
Catering Weather Repair Courtesy Rental Type 100LL JetA JetA+ MOGAS 8087
 
Choice Aviation, LLC

This FBO has not yet been rated
FS:Avfuel
Last Updated: Apr-21
Login to update fuel prices
SS:
Contact Choice Aviation, LLCMore FBO Information
 
Spirit MTN Aviation

This FBO has not yet been rated
FS:Phillips66
Last Updated: Apr-18
Login to update fuel prices
SS:
Contact Spirit MTN AviationMore FBO Information
 
Add another FBO Facility Photos Catering Weather Repair Courtesy Rental Type 100LL JetA JetA+ MOGAS 8087
Services Transportation Aviation Fuel Prices: Prices include tax


GlobalAir.com Airport Resource Center model-print
model-print
model-print
model-print